createdAt,value
2018-07-17T00:00:14.008Z,54.95
2018-07-17T00:01:17.592Z,54.54
2018-07-17T00:02:21.403Z,54.71
2018-07-17T00:03:23.995Z,53.27
2018-07-17T00:04:26.611Z,52.29
2018-07-17T00:05:29.382Z,52.07
2018-07-17T00:06:31.890Z,51.83
2018-07-17T00:07:34.717Z,50.32
2018-07-17T00:08:37.212Z,49.69
2018-07-17T00:09:39.810Z,49.75
2018-07-17T00:10:42.304Z,49.48
2018-07-17T00:11:44.823Z,49.85
2018-07-17T00:12:47.366Z,49.20
2018-07-17T00:13:50.779Z,48.87
2018-07-17T00:14:53.477Z,49.53
2018-07-17T00:15:56.019Z,49.25
2018-07-17T00:16:58.515Z,49.44
2018-07-17T00:18:01.033Z,49.00
2018-07-17T00:19:03.559Z,49.66
2018-07-17T00:20:06.350Z,48.70
2018-07-17T00:21:08.855Z,49.74
2018-07-17T00:22:11.350Z,49.62
2018-07-17T00:23:14.870Z,48.75
2018-07-17T00:24:17.382Z,48.70
2018-07-17T00:25:20.892Z,49.21
2018-07-17T00:26:23.802Z,49.40
2018-07-17T00:27:26.324Z,49.45
2018-07-17T00:28:28.816Z,49.22
2018-07-17T00:29:31.344Z,49.65
2018-07-17T00:30:34.455Z,49.55
2018-07-17T00:31:36.977Z,48.65
2018-07-17T00:32:39.764Z,49.71
2018-07-17T00:33:42.309Z,48.87
2018-07-17T00:34:44.808Z,48.89
2018-07-17T00:35:47.321Z,49.31
2018-07-17T00:36:49.834Z,49.52
2018-07-17T00:37:52.357Z,49.37
2018-07-17T00:38:55.173Z,49.42
2018-07-17T00:39:57.682Z,49.55
2018-07-17T00:41:00.227Z,49.54
2018-07-17T00:42:02.732Z,48.58
2018-07-17T00:43:05.227Z,49.37
2018-07-17T00:44:07.741Z,48.50
2018-07-17T00:45:10.540Z,49.46
2018-07-17T00:46:13.051Z,48.63
2018-07-17T00:47:15.598Z,49.53
2018-07-17T00:48:18.125Z,48.88
2018-07-17T00:49:20.614Z,49.03
2018-07-17T00:50:23.119Z,48.34
2018-07-17T00:51:25.628Z,49.37
2018-07-17T00:52:28.130Z,48.48
2018-07-17T00:53:30.634Z,48.90
2018-07-17T00:54:33.130Z,49.56
2018-07-17T00:55:36.247Z,49.27
2018-07-17T00:56:38.794Z,48.30
2018-07-17T00:57:42.328Z,49.44
2018-07-17T00:58:44.829Z,49.37
2018-07-17T00:59:47.353Z,48.96
2018-07-17T01:00:49.907Z,48.97
2018-07-17T01:01:52.446Z,49.76
2018-07-17T01:02:54.962Z,48.97
2018-07-17T01:03:57.781Z,49.25
2018-07-17T01:05:00.336Z,49.04
2018-07-17T01:06:03.465Z,49.72
2018-07-17T01:07:06.035Z,49.85
2018-07-17T01:08:08.549Z,48.79
2018-07-17T01:09:11.064Z,48.52
2018-07-17T01:10:13.882Z,48.82
2018-07-17T01:11:16.396Z,48.56
2018-07-17T01:12:18.894Z,48.26
2018-07-17T01:13:21.387Z,48.28
2018-07-17T01:14:23.911Z,49.10
2018-07-17T01:15:26.409Z,48.29
2018-07-17T01:16:29.214Z,48.82
2018-07-17T01:17:31.719Z,48.39
2018-07-17T01:18:34.382Z,49.03
2018-07-17T01:19:38.069Z,49.10
2018-07-17T01:20:40.580Z,48.37
2018-07-17T01:21:43.084Z,48.51
2018-07-17T01:22:45.883Z,48.63
2018-07-17T01:23:48.435Z,48.63
2018-07-17T01:24:50.926Z,49.29
2018-07-17T01:25:54.072Z,49.88
2018-07-17T01:26:56.577Z,49.65
2018-07-17T01:27:59.081Z,50.47
2018-07-17T01:29:01.965Z,49.28
2018-07-17T01:30:04.515Z,50.26
2018-07-17T01:31:07.048Z,49.21
2018-07-17T01:32:09.577Z,50.24
2018-07-17T01:33:12.074Z,48.74
2018-07-17T01:34:14.575Z,49.62
2018-07-17T01:35:17.345Z,49.43
2018-07-17T01:36:19.856Z,48.39
2018-07-17T01:37:22.393Z,49.29
2018-07-17T01:38:24.922Z,49.46
2018-07-17T01:39:27.457Z,48.89
2018-07-17T01:40:29.979Z,50.28
2018-07-17T01:41:33.783Z,49.82
2018-07-17T01:42:36.398Z,49.70
2018-07-17T01:43:38.916Z,49.98
2018-07-17T01:44:41.436Z,50.75
2018-07-17T01:45:43.949Z,49.86
2018-07-17T01:46:46.442Z,51.07
2018-07-17T01:47:49.242Z,50.79
2018-07-17T01:48:51.773Z,50.61
2018-07-17T01:49:54.294Z,50.66
2018-07-17T01:50:56.792Z,50.66
2018-07-17T01:51:59.308Z,50.49
2018-07-17T01:53:01.814Z,49.80
2018-07-17T01:54:04.634Z,50.21
2018-07-17T01:55:07.160Z,50.19
2018-07-17T01:56:09.685Z,49.54
2018-07-17T01:57:12.185Z,48.94
2018-07-17T01:58:14.684Z,48.87
2018-07-17T01:59:17.214Z,49.39
2018-07-17T02:00:20.020Z,48.98
2018-07-17T02:01:22.692Z,49.11
2018-07-17T02:02:25.210Z,48.91
2018-07-17T02:03:27.721Z,48.70
2018-07-17T02:04:30.252Z,49.18
2018-07-17T02:05:32.763Z,48.12
2018-07-17T02:06:35.567Z,47.82
2018-07-17T02:07:38.104Z,47.93
2018-07-17T02:08:40.649Z,47.40
2018-07-17T02:09:44.088Z,48.47
2018-07-17T02:10:47.993Z,48.55
2018-07-17T02:11:51.137Z,48.39
2018-07-17T02:12:54.365Z,47.82
2018-07-17T02:13:57.775Z,48.42
2018-07-17T02:15:00.436Z,48.59
2018-07-17T02:16:02.927Z,49.29
2018-07-17T02:17:05.721Z,49.05
2018-07-17T02:18:08.631Z,47.74
2018-07-17T02:19:11.713Z,47.46
2018-07-17T02:20:14.534Z,48.06
2018-07-17T02:21:17.515Z,47.27
2018-07-17T02:22:20.589Z,47.87
2018-07-17T02:23:23.758Z,47.62
2018-07-17T02:24:26.814Z,47.19
2018-07-17T02:25:29.317Z,47.52
2018-07-17T02:26:32.428Z,47.82
2018-07-17T02:27:35.574Z,47.13
2018-07-17T02:28:38.303Z,48.09
2018-07-17T02:29:40.816Z,47.73
2018-07-17T02:30:43.323Z,47.15
2018-07-17T02:31:46.146Z,47.56
2018-07-17T02:32:49.261Z,47.12
2018-07-17T02:33:53.231Z,47.45
2018-07-17T02:34:56.311Z,47.71
2018-07-17T02:35:59.366Z,47.47
2018-07-17T02:37:01.870Z,47.14
2018-07-17T02:38:05.696Z,47.15
2018-07-17T02:39:09.329Z,47.69
2018-07-17T02:40:12.070Z,46.73
2018-07-17T02:41:14.979Z,47.61
2018-07-17T02:42:17.629Z,46.87
2018-07-17T02:43:20.503Z,46.76
2018-07-17T02:44:23.699Z,47.61
2018-07-17T02:45:26.216Z,47.47
2018-07-17T02:46:29.120Z,47.04
2018-07-17T02:47:32.332Z,47.38
2018-07-17T02:48:34.863Z,47.55
2018-07-17T02:49:37.907Z,47.24
2018-07-17T02:50:40.703Z,47.66
2018-07-17T02:51:43.186Z,47.24
2018-07-17T02:52:46.264Z,48.13
2018-07-17T02:53:49.205Z,47.84
2018-07-17T02:54:51.734Z,46.89
2018-07-17T02:55:54.252Z,47.21
2018-07-17T02:56:57.035Z,47.06
2018-07-17T02:57:59.516Z,46.99
2018-07-17T02:59:02.014Z,46.75
2018-07-17T03:00:04.508Z,47.27
2018-07-17T03:01:07.035Z,47.01
2018-07-17T03:02:10.115Z,46.64
2018-07-17T03:03:13.109Z,47.41
2018-07-17T03:04:15.679Z,47.51
2018-07-17T03:05:20.659Z,48.25
2018-07-17T03:06:23.145Z,48.03
2018-07-17T03:07:25.649Z,47.26
2018-07-17T03:08:28.169Z,46.91
2018-07-17T03:09:30.948Z,47.37
2018-07-17T03:10:33.461Z,47.03
2018-07-17T03:11:35.965Z,46.53
2018-07-17T03:12:38.510Z,46.36
2018-07-17T03:13:40.994Z,46.68
2018-07-17T03:14:43.501Z,46.70
2018-07-17T03:15:46.352Z,46.61
2018-07-17T03:16:48.915Z,46.69
2018-07-17T03:17:51.464Z,47.61
2018-07-17T03:18:53.978Z,47.25
2018-07-17T03:19:56.491Z,47.32
2018-07-17T03:20:59.021Z,46.80
2018-07-17T03:22:01.874Z,47.31
2018-07-17T03:23:04.390Z,46.34
2018-07-17T03:24:06.924Z,47.10
2018-07-17T03:25:09.456Z,47.16
2018-07-17T03:26:11.970Z,47.13
2018-07-17T03:27:14.493Z,46.71
2018-07-17T03:28:17.304Z,46.35
2018-07-17T03:29:19.823Z,46.22
2018-07-17T03:30:22.366Z,46.56
2018-07-17T03:31:24.873Z,46.99
2018-07-17T03:32:27.401Z,47.18
2018-07-17T03:33:29.905Z,46.50
2018-07-17T03:34:32.693Z,46.58
2018-07-17T03:35:35.202Z,46.46
2018-07-17T03:36:37.708Z,46.92
2018-07-17T03:37:40.244Z,46.21
2018-07-17T03:38:42.744Z,46.54
2018-07-17T03:39:45.275Z,46.61
2018-07-17T03:40:49.024Z,46.56
2018-07-17T03:41:51.547Z,46.57
2018-07-17T03:42:54.101Z,47.00
2018-07-17T03:43:56.621Z,45.89
2018-07-17T03:44:59.673Z,46.51
2018-07-17T03:46:02.189Z,46.72
2018-07-17T03:47:05.632Z,46.87
2018-07-17T03:48:08.147Z,46.43
2018-07-17T03:49:10.675Z,47.21
2018-07-17T03:50:13.186Z,46.76
2018-07-17T03:51:15.706Z,47.84
2018-07-17T03:52:18.439Z,48.47
2018-07-17T03:53:22.950Z,47.16
2018-07-17T03:54:25.680Z,47.24
2018-07-17T03:55:28.195Z,47.90
2018-07-17T03:56:31.308Z,47.34
2018-07-17T03:57:33.814Z,47.25
2018-07-17T03:58:36.347Z,46.70
2018-07-17T03:59:39.228Z,46.90
2018-07-17T04:00:41.788Z,46.97
2018-07-17T04:01:44.315Z,46.19
2018-07-17T04:02:46.903Z,46.66
2018-07-17T04:03:49.437Z,46.82
2018-07-17T04:04:51.942Z,46.12
2018-07-17T04:05:55.455Z,46.55
2018-07-17T04:06:58.711Z,46.85
2018-07-17T04:08:05.341Z,48.25
2018-07-17T04:09:08.074Z,47.39
2018-07-17T04:10:10.821Z,47.60
2018-07-17T04:11:13.495Z,47.38
2018-07-17T04:12:16.401Z,47.22
2018-07-17T04:14:29.534Z,46.63
2018-07-17T04:15:33.179Z,47.48
2018-07-17T04:16:36.073Z,47.41
2018-07-17T04:17:38.751Z,46.95
2018-07-17T04:18:41.588Z,46.37
2018-07-17T04:19:44.129Z,46.83
2018-07-17T04:20:46.673Z,46.45
2018-07-17T04:21:49.183Z,46.09
2018-07-17T04:22:51.713Z,46.71
2018-07-17T04:23:54.409Z,45.88
2018-07-17T04:24:57.436Z,45.74
2018-07-17T04:25:59.987Z,45.86
2018-07-17T04:27:02.508Z,45.64
2018-07-17T04:28:05.060Z,45.59
2018-07-17T04:29:07.571Z,45.85
2018-07-17T04:30:10.070Z,45.72
2018-07-17T04:31:12.992Z,46.14
2018-07-17T04:32:15.498Z,45.99
2018-07-17T04:33:17.994Z,46.17
2018-07-17T04:34:20.640Z,46.37
2018-07-17T04:35:23.373Z,46.37
2018-07-17T04:36:25.902Z,46.52
2018-07-17T04:37:28.712Z,45.87
2018-07-17T04:38:31.292Z,46.06
2018-07-17T04:39:33.775Z,45.79
2018-07-17T04:40:36.283Z,45.65
2018-07-17T04:41:38.786Z,45.78
2018-07-17T04:42:41.287Z,45.99
2018-07-17T04:43:45.299Z,45.83
2018-07-17T04:44:47.843Z,45.59
2018-07-17T04:45:50.683Z,46.15
2018-07-17T04:46:53.290Z,46.00
2018-07-17T04:47:56.012Z,46.69
2018-07-17T04:48:59.078Z,46.58
2018-07-17T04:50:01.866Z,45.60
2018-07-17T04:51:04.392Z,45.88
2018-07-17T04:52:06.920Z,45.45
2018-07-17T04:53:09.458Z,45.44
2018-07-17T04:54:11.978Z,45.46
2018-07-17T04:55:14.511Z,46.17
2018-07-17T04:56:17.329Z,45.58
2018-07-17T04:57:19.864Z,46.12
2018-07-17T04:58:22.397Z,45.57
2018-07-17T04:59:24.916Z,46.07
2018-07-17T05:00:27.468Z,46.41
2018-07-17T05:01:30.022Z,46.14
2018-07-17T05:02:32.823Z,46.54
2018-07-17T05:03:35.353Z,47.31
2018-07-17T05:04:37.862Z,46.04
2018-07-17T05:05:40.356Z,46.17
2018-07-17T05:06:42.856Z,46.43
2018-07-17T05:07:45.954Z,45.68
2018-07-17T05:08:48.786Z,46.29
2018-07-17T05:09:51.286Z,45.86
2018-07-17T05:10:53.782Z,46.14
2018-07-17T05:11:56.300Z,45.95
2018-07-17T05:12:58.919Z,46.31
2018-07-17T05:14:02.012Z,46.68
2018-07-17T05:15:05.475Z,46.77
2018-07-17T05:16:08.858Z,45.96
2018-07-17T05:17:14.576Z,46.20
2018-07-17T05:18:17.961Z,45.90
2018-07-17T05:19:20.488Z,46.48
2018-07-17T05:20:23.058Z,47.05
2018-07-17T05:21:26.083Z,46.20
2018-07-17T05:22:28.782Z,46.64
2018-07-17T05:23:31.463Z,46.58
2018-07-17T05:24:34.989Z,45.73
2018-07-17T05:25:37.508Z,45.92
2018-07-17T05:26:40.010Z,45.45
2018-07-17T05:27:43.804Z,45.80
2018-07-17T05:28:47.024Z,46.07
2018-07-17T05:29:49.600Z,46.61
2018-07-17T05:30:52.125Z,45.92
2018-07-17T05:31:57.732Z,46.52
2018-07-17T05:33:01.579Z,45.91
2018-07-17T05:34:07.708Z,45.62
2018-07-17T05:35:12.397Z,46.23
2018-07-17T05:36:15.160Z,45.83
2018-07-17T05:37:18.463Z,46.58
2018-07-17T05:38:21.762Z,45.82
2018-07-17T05:39:25.720Z,46.39
2018-07-17T05:40:29.244Z,45.75
2018-07-17T05:41:31.978Z,45.92
2018-07-17T05:42:34.498Z,45.66
2018-07-17T05:43:37.479Z,46.24
2018-07-17T05:44:40.155Z,45.84
2018-07-17T05:45:42.759Z,45.83
2018-07-17T05:46:45.576Z,47.07
2018-07-17T05:47:49.122Z,46.64
2018-07-17T05:48:51.653Z,46.68
2018-07-17T05:49:54.262Z,46.80
2018-07-17T05:50:57.021Z,46.32
2018-07-17T05:51:59.685Z,46.55
2018-07-17T05:53:06.161Z,45.87
2018-07-17T05:54:08.980Z,45.90
2018-07-17T05:55:12.146Z,46.48
2018-07-17T05:56:15.637Z,45.64
2018-07-17T05:57:19.502Z,46.21
2018-07-17T05:58:22.330Z,47.05
2018-07-17T05:59:26.431Z,47.08
2018-07-17T06:00:29.140Z,47.06
2018-07-17T06:01:33.358Z,47.95
2018-07-17T06:02:36.841Z,48.01
2018-07-17T06:03:45.815Z,46.89
2018-07-17T06:04:49.608Z,46.92
2018-07-17T06:05:52.518Z,46.44
2018-07-17T06:06:55.176Z,47.24
2018-07-17T06:07:57.696Z,46.55
2018-07-17T06:09:00.279Z,46.34
2018-07-17T06:10:03.500Z,46.25
2018-07-17T06:11:07.805Z,47.21
2018-07-17T06:12:10.382Z,46.84
2018-07-17T06:13:12.884Z,49.12
2018-07-17T06:14:15.406Z,49.04
2018-07-17T06:15:17.920Z,49.18
2018-07-17T06:16:20.717Z,49.36
2018-07-17T06:17:23.338Z,48.88
2018-07-17T06:18:26.975Z,47.51
2018-07-17T06:19:29.950Z,47.85
2018-07-17T06:20:32.661Z,48.85
2018-07-17T06:21:35.257Z,50.95
2018-07-17T06:22:38.172Z,50.48
2018-07-17T06:23:40.801Z,49.00
2018-07-17T06:24:43.717Z,48.97
2018-07-17T06:25:46.285Z,49.10
2018-07-17T06:26:50.448Z,48.40
2018-07-17T06:27:54.669Z,47.34
2018-07-17T06:29:00.731Z,47.43
2018-07-17T06:30:03.282Z,47.79
2018-07-17T06:31:05.831Z,48.47
2018-07-17T06:32:08.516Z,49.08
2018-07-17T06:33:11.196Z,49.83
2018-07-17T06:34:13.948Z,48.38
2018-07-17T06:35:16.842Z,48.72
2018-07-17T06:36:19.359Z,48.96
2018-07-17T06:37:23.658Z,48.70
2018-07-17T06:38:26.355Z,47.62
2018-07-17T06:39:29.325Z,48.21
2018-07-17T06:40:31.833Z,49.05
2018-07-17T06:41:35.382Z,48.22
2018-07-17T06:42:38.995Z,48.06
2018-07-17T06:43:42.312Z,47.19
2018-07-17T06:44:48.375Z,47.13
2018-07-17T06:46:59.709Z,47.80
2018-07-17T06:48:02.211Z,47.06
2018-07-17T06:49:04.723Z,46.84
2018-07-17T06:50:07.338Z,46.81
2018-07-17T06:51:11.959Z,47.55
2018-07-17T06:52:14.573Z,48.72
2018-07-17T06:53:17.264Z,50.15
2018-07-17T06:54:19.772Z,50.75
2018-07-17T06:55:22.464Z,50.59
2018-07-17T06:56:29.627Z,50.01
2018-07-17T06:57:32.920Z,50.17
2018-07-17T06:58:37.273Z,49.00
2018-07-17T06:59:39.914Z,48.88
2018-07-17T07:00:42.435Z,49.59
2018-07-17T07:01:44.975Z,50.26
2018-07-17T07:02:47.788Z,50.51
2018-07-17T07:03:50.312Z,51.58
2018-07-17T07:04:54.158Z,52.54
2018-07-17T07:05:57.971Z,52.33
2018-07-17T07:07:00.477Z,51.15
2018-07-17T07:08:04.694Z,52.18
2018-07-17T07:09:08.902Z,51.80
2018-07-17T07:10:11.406Z,50.95
2018-07-17T07:11:15.289Z,51.74
2018-07-17T07:12:17.773Z,51.03
2018-07-17T07:13:20.483Z,52.52
2018-07-17T07:14:23.494Z,52.06
2018-07-17T07:15:26.056Z,53.02
2018-07-17T07:16:28.579Z,53.15
2018-07-17T07:17:31.573Z,52.02
2018-07-17T07:18:34.115Z,52.61
2018-07-17T07:19:36.655Z,52.67
2018-07-17T07:20:40.154Z,52.33
2018-07-17T07:21:43.479Z,53.02
2018-07-17T07:22:45.967Z,52.58
2018-07-17T07:23:49.010Z,52.03
2018-07-17T07:24:51.538Z,52.34
2018-07-17T07:25:54.040Z,53.22
2018-07-17T07:26:56.551Z,52.09
2018-07-17T07:27:59.935Z,52.08
2018-07-17T07:29:03.092Z,52.57
2018-07-17T07:30:06.011Z,51.33
2018-07-17T07:31:08.516Z,51.17
2018-07-17T07:32:11.150Z,51.46
2018-07-17T07:33:14.264Z,51.86
2018-07-17T07:34:16.761Z,52.21
2018-07-17T07:35:19.286Z,52.37
2018-07-17T07:36:22.052Z,52.72
2018-07-17T07:37:24.645Z,52.20
2018-07-17T07:38:27.121Z,52.51
2018-07-17T07:39:29.621Z,52.74
2018-07-17T07:40:32.672Z,52.82
2018-07-17T07:41:35.209Z,53.09
2018-07-17T07:42:38.207Z,53.42
2018-07-17T07:43:40.734Z,52.88
2018-07-17T07:44:43.364Z,52.20
2018-07-17T07:45:46.502Z,51.46
2018-07-17T07:46:48.996Z,52.46
2018-07-17T07:47:51.574Z,51.65
2018-07-17T07:48:54.430Z,51.21
2018-07-17T07:49:56.962Z,52.00
2018-07-17T07:50:59.563Z,50.66
2018-07-17T07:52:02.214Z,51.81
2018-07-17T07:53:04.783Z,51.39
2018-07-17T07:54:08.226Z,51.00
2018-07-17T07:55:11.596Z,50.19
2018-07-17T07:56:14.135Z,49.78
2018-07-17T07:57:16.704Z,50.34
2018-07-17T07:58:19.222Z,50.21
2018-07-17T07:59:22.403Z,50.40
2018-07-17T08:00:24.954Z,48.96
2018-07-17T08:01:27.828Z,49.24
2018-07-17T08:02:30.335Z,49.65
2018-07-17T08:03:32.865Z,49.63
2018-07-17T08:04:35.422Z,50.19
2018-07-17T08:05:39.554Z,51.28
2018-07-17T08:06:42.058Z,51.45
2018-07-17T08:07:44.893Z,51.13
2018-07-17T08:08:47.430Z,50.72
2018-07-17T08:09:49.959Z,50.66
2018-07-17T08:10:52.476Z,50.58
2018-07-17T08:16:22.292Z,50.96
2018-07-17T08:17:24.797Z,50.07
2018-07-17T08:18:27.390Z,50.20
2018-07-17T08:19:31.114Z,50.02
2018-07-17T08:22:02.088Z,49.75
2018-07-17T08:23:05.358Z,50.29
2018-07-17T08:24:07.884Z,49.43
2018-07-17T08:25:10.926Z,50.03
2018-07-17T08:26:13.579Z,49.50
2018-07-17T08:27:17.313Z,49.82
2018-07-17T08:28:19.818Z,49.35
2018-07-17T08:29:22.334Z,49.20
2018-07-17T08:30:25.868Z,49.74
2018-07-17T08:31:28.393Z,49.69
2018-07-17T08:32:31.420Z,49.24
2018-07-17T08:33:34.253Z,49.89
2018-07-17T08:34:36.902Z,49.16
2018-07-17T08:35:39.447Z,49.60
2018-07-17T08:36:42.457Z,48.92
2018-07-17T08:37:45.008Z,48.80
2018-07-17T08:38:47.524Z,49.68
2018-07-17T08:39:50.340Z,49.53
2018-07-17T08:40:52.847Z,49.37
2018-07-17T08:41:55.359Z,48.52
2018-07-17T08:42:57.890Z,48.68
2018-07-17T08:44:00.409Z,48.99
2018-07-17T08:45:02.932Z,49.23
2018-07-17T08:46:06.343Z,48.32
2018-07-17T08:47:08.848Z,48.44
2018-07-17T08:48:11.365Z,48.99
2018-07-17T08:49:17.492Z,49.20
2018-07-17T08:50:20.068Z,48.49
2018-07-17T08:51:22.584Z,48.05
2018-07-17T08:52:25.390Z,48.50
2018-07-17T08:53:30.086Z,48.48
2018-07-17T08:54:32.676Z,48.15
2018-07-17T08:55:35.178Z,48.31
2018-07-17T08:56:37.735Z,48.92
2018-07-17T08:57:41.181Z,48.92
2018-07-17T08:58:43.983Z,48.53
2018-07-17T08:59:47.416Z,48.41
2018-07-17T09:00:50.027Z,47.70
2018-07-17T09:01:52.559Z,48.09
2018-07-17T09:02:55.072Z,48.44
2018-07-17T09:03:58.216Z,48.40
2018-07-17T09:05:02.085Z,48.64
2018-07-17T09:06:05.214Z,48.45
2018-07-17T09:07:07.832Z,47.60
2018-07-17T09:08:10.457Z,48.25
2018-07-17T09:09:14.498Z,48.39
2018-07-17T09:10:17.330Z,48.11
2018-07-17T09:11:20.151Z,47.64
2018-07-17T09:12:22.709Z,47.52
2018-07-17T09:13:25.228Z,47.40
2018-07-17T09:14:27.747Z,47.39
2018-07-17T09:15:30.244Z,47.44
2018-07-17T09:16:32.777Z,48.06
2018-07-17T09:17:36.335Z,47.21
2018-07-17T09:18:40.555Z,47.28
2018-07-17T09:19:43.321Z,46.61
2018-07-17T09:20:45.940Z,47.77
2018-07-17T11:41:27.912Z,48.04
2018-07-17T11:42:30.487Z,48.18
2018-07-17T11:43:33.824Z,47.66
2018-07-17T12:39:13.004Z,48.97
2018-07-17T12:40:15.767Z,48.40
2018-07-17T12:41:18.571Z,48.17
2018-07-17T12:42:21.329Z,47.36
2018-07-17T12:43:32.094Z,47.39
2018-07-17T12:48:04.581Z,47.33
2018-07-17T12:49:15.963Z,46.35
2018-07-17T12:50:20.731Z,46.29
2018-07-17T12:52:30.730Z,46.63
2018-07-17T12:53:33.389Z,46.65
2018-07-17T13:17:31.228Z,45.98
2018-07-17T13:18:34.452Z,46.32
2018-07-17T13:19:38.112Z,46.18
2018-07-17T13:20:41.559Z,46.95
2018-07-17T13:21:45.362Z,46.64
2018-07-17T13:22:49.326Z,45.91
2018-07-17T13:23:52.025Z,46.95
2018-07-17T18:25:14.009Z,46.40
2018-07-17T18:26:16.546Z,47.15
2018-07-17T18:27:23.351Z,46.66
2018-07-17T18:28:27.628Z,44.59
2018-07-17T18:29:30.406Z,44.06
2018-07-17T18:30:34.173Z,44.74
2018-07-17T18:31:36.959Z,44.05
2018-07-17T18:32:39.561Z,43.84
2018-07-17T18:33:42.276Z,43.58
2018-07-17T18:34:45.612Z,43.36
2018-07-17T18:35:48.262Z,44.72
2018-07-17T18:36:51.327Z,44.14
2018-07-17T18:37:53.981Z,44.60
2018-07-17T18:38:56.558Z,44.42
2018-07-17T18:39:59.974Z,44.04
2018-07-17T18:41:02.592Z,44.16
2018-07-17T18:42:05.204Z,44.35
2018-07-17T18:43:09.422Z,43.45
2018-07-17T18:44:12.507Z,44.53
2018-07-17T18:45:15.320Z,44.53
2018-07-17T18:46:17.850Z,44.44
2018-07-17T18:47:20.434Z,44.46
2018-07-17T18:48:23.019Z,44.85
2018-07-17T18:49:25.907Z,44.38
2018-07-17T18:50:28.585Z,44.14
2018-07-17T18:51:33.383Z,44.27
2018-07-17T18:52:36.974Z,44.26
2018-07-17T18:53:39.533Z,44.71
2018-07-17T18:54:42.942Z,44.58
2018-07-17T18:55:46.803Z,44.69
2018-07-17T18:56:49.334Z,44.72
2018-07-17T18:57:51.957Z,44.11
2018-07-17T18:58:54.699Z,44.93
2018-07-17T18:59:57.312Z,44.75
2018-07-17T19:34:43.640Z,43.99
2018-07-17T19:35:46.373Z,44.43
2018-07-17T19:36:50.430Z,43.32
2018-07-17T19:37:55.284Z,43.68
2018-07-17T19:38:57.870Z,42.76
2018-07-17T19:40:04.657Z,42.78
2018-07-17T19:41:08.490Z,43.59
2018-07-17T19:42:13.034Z,42.56
2018-07-17T19:43:16.397Z,43.24
2018-07-17T19:44:21.212Z,42.71
2018-07-17T19:45:27.531Z,41.92
2018-07-17T19:46:33.470Z,43.16
2018-07-17T19:47:38.406Z,41.61
2018-07-17T19:48:49.469Z,42.71
2018-07-17T19:51:01.929Z,42.51
2018-07-17T19:52:08.740Z,41.52
2018-07-17T19:53:13.538Z,41.70
2018-07-17T19:54:17.230Z,41.71
2018-07-17T19:55:20.300Z,42.63
2018-07-17T19:56:24.331Z,42.06
2018-07-17T19:57:29.524Z,42.58
2018-07-17T19:58:33.154Z,42.09
2018-07-17T19:59:36.078Z,42.07
2018-07-17T20:01:52.822Z,42.01
2018-07-17T20:02:56.368Z,42.18
2018-07-17T20:03:59.296Z,42.03
2018-07-17T20:05:02.059Z,42.62
2018-07-17T20:06:07.617Z,42.90
2018-07-17T20:07:10.412Z,42.84
2018-07-17T20:08:18.496Z,42.23
2018-07-17T20:09:25.055Z,43.22
2018-07-17T20:10:29.564Z,42.60
2018-07-17T20:11:35.419Z,43.08
2018-07-17T20:12:38.658Z,42.64
2018-07-17T20:13:41.256Z,43.28
2018-07-17T20:14:43.819Z,43.30
2018-07-17T20:15:49.557Z,43.14
2018-07-17T20:16:53.289Z,42.89
2018-07-17T20:17:56.848Z,42.68
2018-07-17T20:18:59.518Z,43.24
2018-07-17T20:20:05.157Z,42.83
2018-07-17T20:21:09.552Z,43.79
2018-07-17T20:22:12.388Z,43.12
2018-07-17T20:23:20.167Z,43.14
2018-07-17T20:24:25.003Z,43.53
2018-07-17T20:25:28.276Z,44.09
2018-07-17T20:26:32.070Z,43.89
2018-07-17T20:28:47.771Z,44.30
2018-07-17T20:29:56.389Z,43.79
2018-07-17T20:30:59.651Z,44.17
2018-07-17T20:32:05.086Z,44.47
2018-07-17T20:33:08.276Z,44.61
2018-07-17T20:34:10.937Z,44.25
2018-07-17T20:35:13.446Z,44.22
2018-07-17T20:36:16.341Z,43.60
2018-07-17T20:37:19.219Z,44.41
2018-07-17T20:38:21.792Z,43.81
2018-07-17T20:39:24.337Z,44.16
2018-07-17T20:40:26.896Z,44.68
2018-07-17T20:41:29.600Z,44.20
2018-07-17T20:42:32.434Z,44.95
2018-07-17T20:43:35.267Z,44.42
2018-07-17T20:44:38.933Z,44.95
2018-07-17T20:45:42.111Z,45.25
2018-07-17T20:46:44.784Z,44.41
2018-07-17T20:47:47.416Z,45.41
2018-07-17T20:48:51.815Z,45.61
2018-07-17T20:49:55.798Z,45.37
2018-07-17T20:50:58.771Z,45.35
2018-07-17T20:52:01.351Z,46.08
2018-07-17T20:53:08.647Z,45.09
2018-07-17T20:54:11.712Z,46.06
2018-07-17T20:55:17.221Z,45.55
2018-07-17T20:56:20.129Z,45.91
2018-07-17T20:58:31.743Z,45.65
2018-07-17T20:59:34.582Z,45.08
2018-07-17T21:00:38.204Z,45.81
2018-07-17T21:01:41.672Z,45.36
2018-07-17T21:02:47.665Z,46.28
2018-07-17T21:03:50.241Z,46.41
2018-07-17T21:04:53.505Z,45.20
2018-07-17T21:05:56.273Z,45.14
2018-07-17T21:07:02.247Z,45.37
2018-07-17T21:08:05.535Z,45.58
2018-07-17T21:09:08.955Z,46.15
2018-07-17T21:10:16.246Z,45.49
2018-07-17T21:11:18.904Z,46.13
2018-07-17T21:12:21.498Z,45.53
2018-07-17T21:13:25.314Z,46.33
2018-07-17T21:14:28.337Z,45.82
2018-07-17T21:15:30.924Z,46.30
2018-07-17T21:16:33.448Z,45.90
2018-07-17T21:17:36.028Z,46.29
2018-07-17T21:18:39.219Z,45.74
2018-07-17T21:19:44.271Z,46.35
2018-07-17T21:20:46.814Z,46.06
2018-07-17T21:21:52.754Z,46.19
2018-07-17T21:22:58.221Z,46.42
2018-07-17T21:25:11.611Z,46.18
2018-07-17T21:27:25.011Z,45.89
2018-07-17T21:28:28.157Z,45.91
2018-07-17T21:29:30.712Z,45.72
2018-07-17T21:30:33.537Z,45.41
2018-07-17T21:31:36.858Z,46.10
2018-07-17T21:32:39.850Z,45.43
2018-07-17T21:33:42.428Z,46.06
2018-07-17T21:35:56.185Z,45.66
2018-07-17T21:36:58.726Z,45.60
2018-07-17T21:38:01.285Z,46.83
2018-07-17T21:39:04.191Z,46.89
2018-07-17T21:40:06.748Z,46.30
2018-07-17T21:41:10.472Z,47.30
2018-07-17T21:42:15.194Z,47.52
2018-07-17T21:44:29.539Z,46.56
2018-07-17T21:45:36.670Z,47.06
2018-07-17T21:46:39.696Z,47.97
2018-07-17T21:47:43.336Z,48.15
2018-07-17T21:48:51.361Z,48.20
2018-07-17T21:49:56.438Z,47.85
2018-07-17T21:52:07.146Z,46.89
2018-07-17T21:53:09.678Z,47.67
2018-07-17T21:54:13.280Z,46.76
2018-07-17T21:55:16.563Z,46.93
2018-07-17T21:56:19.703Z,47.82
2018-07-17T21:57:24.280Z,46.98
2018-07-17T21:58:26.822Z,47.97
2018-07-17T21:59:29.345Z,48.13
2018-07-17T22:00:32.486Z,48.33
2018-07-17T22:01:35.912Z,47.64
2018-07-17T22:02:38.456Z,48.38
2018-07-17T22:03:41.267Z,48.52
2018-07-17T22:04:46.812Z,48.15
2018-07-17T22:05:50.342Z,48.07
2018-07-17T22:06:53.045Z,48.11
2018-07-17T22:07:57.072Z,47.94
2018-07-17T22:08:59.586Z,47.99
2018-07-17T22:10:02.450Z,48.23
2018-07-17T22:11:05.063Z,48.24
2018-07-17T22:12:07.609Z,48.43
2018-07-17T22:13:10.809Z,48.27
2018-07-17T22:14:13.357Z,48.93
2018-07-17T22:15:16.898Z,49.18
2018-07-17T22:16:19.799Z,48.45
2018-07-17T22:17:22.358Z,48.89
2018-07-17T22:18:24.872Z,48.86
2018-07-17T22:19:27.406Z,49.18
2018-07-17T22:20:30.051Z,48.00
2018-07-17T22:21:32.637Z,48.78
2018-07-17T22:22:36.381Z,48.13
2018-07-17T22:23:38.878Z,48.95
2018-07-17T22:24:41.939Z,48.37
2018-07-17T22:25:44.491Z,48.18
2018-07-17T22:26:47.028Z,48.14
2018-07-17T22:27:49.550Z,48.93
2018-07-17T22:28:52.925Z,49.34
2018-07-17T22:29:55.493Z,48.30
2018-07-17T22:30:58.018Z,48.44
2018-07-17T22:32:00.560Z,48.30
2018-07-17T22:33:03.678Z,48.41
2018-07-17T22:34:06.176Z,48.09
